createdAt,value
2023-02-19T00:00:27.404Z,13.44
2023-02-19T00:02:57.044Z,12.83
2023-02-19T00:05:25.360Z,13.11
2023-02-19T00:07:55.267Z,13.38
2023-02-19T00:10:23.655Z,13.15
2023-02-19T00:12:52.639Z,13.40
2023-02-19T00:15:20.923Z,13.05
2023-02-19T00:17:49.286Z,13.24
2023-02-19T00:20:17.994Z,13.19
2023-02-19T00:22:46.386Z,13.16
2023-02-19T00:25:16.603Z,12.98
2023-02-19T00:27:44.872Z,12.74
2023-02-19T00:30:13.791Z,12.92
2023-02-19T00:32:42.447Z,13.19
2023-02-19T00:35:10.816Z,13.17
2023-02-19T00:37:39.180Z,12.90
2023-02-19T00:40:08.604Z,12.76
2023-02-19T00:42:38.439Z,13.07
2023-02-19T00:45:07.287Z,13.31
2023-02-19T00:47:35.577Z,13.10
2023-02-19T00:50:04.031Z,12.85
2023-02-19T00:52:32.559Z,13.06
2023-02-19T00:55:00.844Z,12.86
2023-02-19T00:57:29.447Z,12.95
2023-02-19T00:59:59.232Z,12.80
2023-02-19T01:02:27.886Z,13.05
2023-02-19T01:04:56.461Z,13.03
2023-02-19T01:07:25.358Z,12.85
2023-02-19T01:09:53.889Z,13.13
2023-02-19T01:12:24.514Z,12.87
2023-02-19T01:14:52.860Z,12.76
2023-02-19T01:17:22.868Z,12.60
2023-02-19T01:19:53.563Z,12.94
2023-02-19T01:22:21.832Z,13.33
2023-02-19T01:24:50.260Z,12.96
2023-02-19T01:27:18.766Z,13.27
2023-02-19T01:29:47.236Z,12.89
2023-02-19T01:32:15.630Z,13.04
2023-02-19T01:34:45.489Z,13.18
2023-02-19T01:37:13.697Z,12.89
2023-02-19T01:39:41.971Z,12.53
2023-02-19T01:42:14.963Z,13.00
2023-02-19T01:45:25.851Z,13.09
2023-02-19T01:47:59.683Z,12.96
2023-02-19T01:50:36.119Z,12.73
2023-02-19T01:53:08.901Z,12.81
2023-02-19T01:55:37.379Z,12.53
2023-02-19T01:58:05.738Z,12.94
2023-02-19T02:00:34.831Z,12.74
2023-02-19T02:03:04.049Z,12.84
2023-02-19T02:05:47.648Z,12.52
2023-02-19T02:08:34.106Z,12.75
2023-02-19T02:11:02.984Z,12.65
2023-02-19T02:13:31.668Z,12.90
2023-02-19T02:16:08.656Z,12.82
2023-02-19T02:18:49.249Z,12.92
2023-02-19T02:21:35.617Z,12.68
2023-02-19T02:24:17.451Z,13.00
2023-02-19T02:26:57.180Z,12.94
2023-02-19T02:30:08.724Z,12.83
2023-02-19T02:32:41.272Z,12.88
2023-02-19T02:35:12.328Z,12.51
2023-02-19T02:37:43.644Z,12.81
2023-02-19T02:40:13.449Z,12.46
2023-02-19T02:42:41.816Z,12.22
2023-02-19T02:45:37.788Z,12.33
2023-02-19T02:48:12.642Z,12.56
2023-02-19T02:50:43.567Z,12.20
2023-02-19T02:53:33.503Z,12.34
2023-02-19T02:56:02.827Z,12.47
2023-02-19T02:58:32.114Z,12.57
2023-02-19T03:01:22.789Z,12.51
2023-02-19T03:03:55.799Z,12.64
2023-02-19T03:06:24.470Z,12.29
2023-02-19T03:08:56.312Z,12.66
2023-02-19T03:11:42.495Z,12.69
2023-02-19T03:14:34.671Z,12.41
2023-02-19T03:17:28.226Z,12.59
2023-02-19T03:19:59.723Z,11.77
2023-02-19T03:22:31.587Z,12.33
2023-02-19T03:25:19.892Z,11.94
2023-02-19T03:27:49.424Z,12.06
2023-02-19T03:30:21.013Z,11.92
2023-02-19T03:32:55.895Z,12.21
2023-02-19T03:35:25.915Z,12.16
2023-02-19T03:37:59.597Z,12.30
2023-02-19T03:40:30.866Z,12.21
2023-02-19T03:43:05.071Z,12.21
2023-02-19T03:45:43.301Z,12.55
2023-02-19T03:48:24.949Z,12.22
2023-02-19T03:50:59.904Z,12.04
2023-02-19T03:53:32.866Z,12.23
2023-02-19T03:56:08.232Z,12.09
2023-02-19T03:58:41.776Z,12.25
2023-02-19T04:01:14.130Z,12.41
2023-02-19T04:03:48.330Z,12.05
2023-02-19T04:06:19.281Z,12.18
2023-02-19T04:08:50.721Z,11.94
2023-02-19T04:11:19.653Z,12.32
2023-02-19T04:13:52.092Z,12.14
2023-02-19T04:16:22.766Z,12.11
2023-02-19T04:18:55.700Z,12.21
2023-02-19T04:21:24.805Z,12.17
2023-02-19T04:23:53.601Z,12.04
2023-02-19T04:26:23.943Z,12.16
2023-02-19T04:28:52.325Z,12.17
2023-02-19T04:31:20.956Z,11.98
2023-02-19T04:33:49.469Z,12.15
2023-02-19T04:36:19.342Z,12.62
2023-02-19T04:38:47.715Z,12.24
2023-02-19T04:41:16.334Z,12.40
2023-02-19T04:43:44.795Z,12.12
2023-02-19T04:46:13.100Z,11.85
2023-02-19T04:48:45.105Z,11.94
2023-02-19T04:51:13.678Z,12.44
2023-02-19T04:53:43.913Z,12.06
2023-02-19T04:56:13.640Z,12.09
2023-02-19T04:58:43.365Z,11.88
2023-02-19T05:01:12.903Z,12.20
2023-02-19T05:03:41.782Z,11.91
2023-02-19T05:06:12.745Z,12.22
2023-02-19T05:08:42.030Z,11.91
2023-02-19T05:11:13.593Z,12.04
2023-02-19T05:13:42.268Z,11.90
2023-02-19T05:16:14.007Z,11.92
2023-02-19T05:18:42.521Z,11.98
2023-02-19T05:21:11.757Z,11.91
2023-02-19T05:23:40.364Z,11.73
2023-02-19T05:26:08.885Z,12.07
2023-02-19T05:28:38.644Z,11.72
2023-02-19T05:31:09.857Z,12.18
2023-02-19T05:33:38.806Z,11.62
2023-02-19T05:36:08.958Z,11.89
2023-02-19T05:38:40.301Z,11.83
2023-02-19T05:41:10.789Z,12.04
2023-02-19T05:43:41.688Z,11.60
2023-02-19T05:46:11.194Z,11.92
2023-02-19T05:48:40.836Z,11.64
2023-02-19T05:51:11.211Z,11.63
2023-02-19T05:53:40.208Z,12.00
2023-02-19T05:56:24.692Z,11.85
2023-02-19T05:58:55.286Z,12.09
2023-02-19T06:01:25.829Z,12.00
2023-02-19T06:03:57.229Z,12.33
2023-02-19T06:06:26.475Z,12.09
2023-02-19T06:08:55.712Z,11.73
2023-02-19T06:11:24.932Z,11.72
2023-02-19T06:14:00.013Z,11.74
2023-02-19T06:16:28.381Z,11.92
2023-02-19T06:18:57.021Z,12.17
2023-02-19T06:21:25.554Z,11.73
2023-02-19T06:23:54.197Z,12.11
2023-02-19T06:26:24.036Z,12.13
2023-02-19T06:28:54.349Z,11.95
2023-02-19T06:31:25.181Z,11.97
2023-02-19T06:33:55.122Z,12.03
2023-02-19T06:36:24.469Z,11.66
2023-02-19T06:38:53.125Z,11.82
2023-02-19T06:41:21.409Z,12.31
2023-02-19T06:43:49.803Z,12.21
2023-02-19T06:46:18.365Z,11.96
2023-02-19T06:48:48.231Z,12.03
2023-02-19T06:51:18.853Z,12.19
2023-02-19T06:53:47.490Z,11.87
2023-02-19T06:56:26.391Z,11.85
2023-02-19T06:58:55.742Z,12.00
2023-02-19T07:01:25.001Z,11.79
2023-02-19T07:03:55.028Z,11.78
2023-02-19T07:06:25.309Z,11.69
2023-02-19T07:08:55.422Z,12.08
2023-02-19T07:11:24.730Z,11.80
2023-02-19T07:13:58.073Z,11.78
2023-02-19T07:16:26.497Z,12.12
2023-02-19T07:18:57.659Z,12.02
2023-02-19T07:21:28.443Z,11.95
2023-02-19T07:23:59.817Z,11.99
2023-02-19T07:26:28.195Z,12.05
2023-02-19T07:28:56.516Z,12.12
2023-02-19T07:31:25.572Z,12.03
2023-02-19T07:33:59.506Z,11.72
2023-02-19T07:36:28.058Z,12.17
2023-02-19T07:38:59.541Z,12.00
2023-02-19T07:41:28.968Z,12.15
2023-02-19T07:43:57.095Z,12.09
2023-02-19T07:46:27.736Z,11.84
2023-02-19T07:48:58.086Z,12.17
2023-02-19T07:51:26.658Z,11.71
2023-02-19T07:53:55.112Z,11.73
2023-02-19T07:56:23.513Z,11.81
2023-02-19T07:58:51.883Z,12.03
2023-02-19T08:01:41.166Z,11.65
2023-02-19T08:04:11.695Z,11.88
2023-02-19T08:06:40.191Z,12.28
2023-02-19T08:09:08.830Z,11.81
2023-02-19T08:11:54.554Z,12.25
2023-02-19T08:14:26.293Z,12.06
2023-02-19T08:16:55.217Z,12.15
2023-02-19T08:19:25.080Z,12.17
2023-02-19T08:21:53.678Z,12.44
2023-02-19T08:24:25.142Z,12.50
2023-02-19T08:26:57.418Z,12.61
2023-02-19T08:29:26.021Z,12.39
2023-02-19T08:31:55.034Z,12.38
2023-02-19T08:34:24.916Z,12.53
2023-02-19T08:36:53.408Z,12.56
2023-02-19T08:39:21.840Z,12.57
2023-02-19T08:41:53.778Z,12.25
2023-02-19T08:44:22.729Z,12.54
2023-02-19T08:47:00.436Z,12.73
2023-02-19T08:49:32.096Z,12.86
2023-02-19T08:52:01.175Z,12.56
2023-02-19T08:54:29.859Z,12.82
2023-02-19T08:56:58.950Z,12.69
2023-02-19T08:59:31.953Z,12.71
2023-02-19T09:02:03.371Z,12.90
2023-02-19T09:04:33.716Z,13.02
2023-02-19T09:07:02.115Z,13.04
2023-02-19T09:09:30.879Z,12.54
2023-02-19T09:11:59.858Z,12.65
2023-02-19T09:14:28.883Z,12.43
2023-02-19T09:16:59.228Z,12.45
2023-02-19T09:19:28.274Z,12.54
2023-02-19T09:21:59.226Z,12.91
2023-02-19T09:24:27.634Z,12.59
2023-02-19T09:26:58.129Z,12.60
2023-02-19T09:29:27.654Z,12.49
2023-02-19T09:31:58.597Z,12.72
2023-02-19T09:34:27.706Z,12.38
2023-02-19T09:36:57.701Z,12.51
2023-02-19T09:39:26.198Z,12.38
2023-02-19T09:41:58.573Z,12.40
2023-02-19T09:44:31.488Z,12.07
2023-02-19T09:47:03.408Z,12.55
2023-02-19T09:49:34.847Z,12.59
2023-02-19T09:52:17.180Z,12.49
2023-02-19T09:54:46.467Z,12.80
2023-02-19T09:57:17.094Z,12.69
2023-02-19T09:59:50.355Z,12.76
2023-02-19T10:02:22.220Z,12.45
2023-02-19T10:04:52.291Z,12.24
2023-02-19T10:07:26.584Z,12.53
2023-02-19T10:09:57.726Z,12.49
2023-02-19T10:12:28.449Z,12.65
2023-02-19T10:15:01.362Z,12.22
2023-02-19T10:17:34.712Z,12.38
2023-02-19T10:20:04.794Z,12.46
2023-02-19T10:22:39.049Z,12.32
2023-02-19T10:25:08.062Z,12.48
2023-02-19T10:27:36.435Z,12.43
2023-02-19T10:30:07.898Z,12.13
2023-02-19T10:32:36.566Z,12.22
2023-02-19T10:35:10.675Z,11.99
2023-02-19T10:37:45.817Z,12.07
2023-02-19T10:40:17.649Z,12.38
2023-02-19T10:42:47.909Z,12.18
2023-02-19T10:45:20.707Z,12.11
2023-02-19T10:47:50.195Z,12.05
2023-02-19T10:50:26.901Z,12.22
2023-02-19T10:53:04.913Z,12.29
2023-02-19T10:55:39.450Z,12.40
2023-02-19T10:58:24.670Z,12.45
2023-02-19T11:01:18.765Z,12.24
2023-02-19T11:03:50.239Z,12.37
2023-02-19T11:06:21.669Z,11.65
2023-02-19T11:08:55.997Z,11.96
2023-02-19T11:11:33.888Z,12.08
2023-02-19T11:14:05.627Z,12.40
2023-02-19T11:16:43.125Z,12.49
2023-02-19T11:19:39.066Z,12.51
2023-02-19T11:22:22.075Z,12.87
2023-02-19T11:24:58.492Z,12.83
2023-02-19T11:27:30.318Z,12.91
2023-02-19T11:30:21.345Z,12.43
2023-02-19T11:32:49.794Z,12.48
2023-02-19T11:35:24.327Z,12.67
2023-02-19T11:38:06.666Z,12.46
2023-02-19T11:40:45.882Z,12.81
2023-02-19T11:43:35.442Z,12.86
2023-02-19T11:46:20.867Z,12.76
2023-02-19T11:49:01.585Z,12.79
2023-02-19T11:51:51.495Z,12.98
2023-02-19T11:54:37.771Z,13.33
2023-02-19T11:57:16.989Z,13.11
2023-02-19T11:59:49.360Z,13.35
2023-02-19T12:02:51.947Z,13.26
2023-02-19T12:05:32.621Z,12.86
2023-02-19T12:08:23.631Z,13.58
2023-02-19T12:11:05.609Z,13.81
2023-02-19T12:13:57.309Z,13.65
2023-02-19T12:16:28.418Z,13.60
2023-02-19T12:19:44.784Z,13.87
2023-02-19T12:22:29.913Z,14.12
2023-02-19T12:25:26.919Z,14.15
2023-02-19T12:28:13.539Z,14.11
2023-02-19T12:31:07.197Z,14.29
2023-02-19T12:33:50.758Z,14.83
2023-02-19T12:36:27.604Z,14.51
2023-02-19T12:39:04.798Z,14.79
2023-02-19T12:41:39.848Z,14.81
2023-02-19T12:44:13.413Z,14.49
2023-02-19T12:46:46.454Z,14.62
2023-02-19T12:49:20.796Z,14.13
2023-02-19T12:51:51.698Z,14.15
2023-02-19T12:54:24.188Z,14.38
2023-02-19T12:56:57.369Z,14.29
2023-02-19T12:59:36.009Z,14.24
2023-02-19T13:02:13.824Z,14.17
2023-02-19T13:04:47.279Z,14.39
2023-02-19T13:07:21.157Z,14.75
2023-02-19T13:09:54.490Z,14.71
2023-02-19T13:12:26.772Z,14.44
2023-02-19T13:14:59.968Z,14.74
2023-02-19T13:17:37.257Z,14.29
2023-02-19T13:20:19.681Z,14.36
2023-02-19T13:23:13.902Z,14.21
2023-02-19T13:25:51.381Z,14.25
2023-02-19T13:28:35.024Z,14.50
2023-02-19T13:31:30.853Z,14.56
2023-02-19T13:34:12.457Z,14.57
2023-02-19T13:36:43.503Z,14.30
2023-02-19T13:41:52.943Z,14.41
2023-02-19T13:44:26.796Z,14.92
2023-02-19T13:46:55.599Z,14.69
2023-02-19T13:49:50.125Z,15.08
2023-02-19T13:52:39.605Z,14.93
2023-02-19T13:55:49.811Z,14.73
2023-02-19T13:59:01.590Z,15.00
2023-02-19T14:02:13.825Z,14.61
2023-02-19T14:04:55.973Z,14.23
2023-02-19T14:07:37.241Z,14.75
2023-02-19T14:10:10.014Z,14.82
2023-02-19T14:12:42.597Z,14.52
2023-02-19T14:15:44.433Z,14.60
2023-02-19T14:18:45.155Z,14.70
2023-02-19T14:21:29.074Z,14.60
2023-02-19T14:24:00.381Z,14.71
2023-02-19T14:26:32.852Z,14.57
2023-02-19T14:29:02.164Z,14.54
2023-02-19T14:31:35.017Z,14.21
2023-02-19T14:34:09.373Z,14.14
2023-02-19T14:36:45.973Z,14.12
2023-02-19T14:39:18.954Z,14.12
2023-02-19T14:41:50.576Z,14.11
2023-02-19T14:44:22.133Z,13.39
2023-02-19T14:46:59.735Z,13.69
2023-02-19T14:49:33.343Z,13.70
2023-02-19T14:52:08.270Z,13.68
2023-02-19T14:54:44.579Z,13.46
2023-02-19T14:57:19.312Z,13.40
2023-02-19T15:00:03.300Z,13.86
2023-02-19T15:02:34.915Z,13.15
2023-02-19T15:05:16.302Z,12.90
2023-02-19T15:07:47.443Z,13.17
2023-02-19T15:10:16.575Z,12.87
2023-02-19T15:12:47.933Z,13.06
2023-02-19T15:15:20.359Z,12.88
2023-02-19T15:17:50.301Z,12.95
2023-02-19T15:20:21.365Z,12.86
2023-02-19T15:22:52.094Z,13.07
2023-02-19T15:25:22.325Z,13.08
2023-02-19T15:27:51.911Z,12.85
2023-02-19T15:30:31.767Z,12.43
2023-02-19T15:33:03.031Z,12.40
2023-02-19T15:35:35.796Z,12.24
2023-02-19T15:38:18.317Z,12.51
2023-02-19T15:40:48.690Z,12.30
2023-02-19T15:43:24.726Z,11.77
2023-02-19T15:45:56.488Z,12.23
2023-02-19T15:48:32.130Z,12.01
2023-02-19T15:51:10.493Z,12.11
2023-02-19T15:53:45.795Z,12.16
2023-02-19T15:56:21.110Z,12.04
2023-02-19T15:58:55.080Z,11.96
2023-02-19T16:01:26.731Z,11.91
2023-02-19T16:03:56.495Z,11.79
2023-02-19T16:06:34.295Z,11.73
2023-02-19T16:09:07.264Z,11.98
2023-02-19T16:11:38.713Z,11.69
2023-02-19T16:14:27.772Z,11.54
2023-02-19T16:16:59.135Z,11.68
2023-02-19T16:19:35.212Z,11.41
2023-02-19T16:22:14.547Z,11.58
2023-02-19T16:24:48.251Z,11.96
2023-02-19T16:27:31.126Z,12.19
2023-02-19T16:30:01.959Z,11.98
2023-02-19T16:32:31.228Z,12.03
2023-02-19T16:35:07.749Z,11.63
2023-02-19T16:37:41.138Z,11.41
2023-02-19T16:41:07.377Z,11.39
2023-02-19T16:43:44.622Z,11.21
2023-02-19T16:46:23.211Z,11.18
2023-02-19T16:49:03.193Z,11.03
2023-02-19T16:51:32.505Z,10.58
2023-02-19T16:54:02.475Z,11.08
2023-02-19T16:56:38.029Z,10.73
2023-02-19T16:59:22.514Z,11.10
2023-02-19T17:01:54.518Z,11.10
2023-02-19T17:04:23.264Z,11.16
2023-02-19T17:06:52.231Z,11.09
2023-02-19T17:09:22.645Z,11.27
2023-02-19T17:11:54.099Z,10.91
2023-02-19T17:14:23.949Z,10.45
2023-02-19T17:17:02.337Z,10.79
2023-02-19T17:19:39.502Z,10.42
2023-02-19T17:22:10.496Z,10.58
2023-02-19T17:24:40.804Z,10.55
2023-02-19T17:27:13.548Z,10.57
2023-02-19T17:29:44.020Z,10.58
2023-02-19T17:32:15.292Z,11.08
2023-02-19T17:34:44.620Z,10.95
2023-02-19T17:37:22.453Z,10.87
2023-02-19T17:40:12.047Z,10.79
2023-02-19T17:42:45.187Z,10.87
2023-02-19T17:45:13.981Z,10.91
2023-02-19T17:47:42.601Z,10.90
2023-02-19T17:50:15.794Z,10.90
2023-02-19T17:52:44.344Z,10.82
2023-02-19T17:55:15.285Z,10.71
2023-02-19T17:57:46.153Z,10.87
2023-02-19T18:00:18.220Z,10.79
2023-02-19T18:02:46.752Z,10.76
2023-02-19T18:05:15.340Z,11.08
2023-02-19T18:07:43.976Z,11.30
2023-02-19T18:10:12.835Z,10.94
2023-02-19T18:12:41.497Z,11.06
2023-02-19T18:15:17.674Z,11.05
2023-02-19T18:17:46.099Z,11.32
2023-02-19T18:20:16.304Z,10.80
2023-02-19T18:22:44.750Z,11.42
2023-02-19T18:25:13.339Z,11.35
2023-02-19T18:27:41.752Z,11.03
2023-02-19T18:30:13.211Z,11.01
2023-02-19T18:32:41.759Z,11.04
2023-02-19T18:35:10.444Z,10.74
2023-02-19T18:37:39.138Z,10.97
2023-02-19T18:40:08.946Z,10.82
2023-02-19T18:42:37.438Z,10.78
2023-02-19T18:45:07.775Z,11.08
2023-02-19T18:47:37.593Z,10.79
2023-02-19T18:50:08.565Z,10.74
2023-02-19T18:52:37.194Z,10.78
2023-02-19T18:55:12.215Z,10.81
2023-02-19T18:57:41.021Z,10.78
2023-02-19T19:00:10.612Z,10.66
2023-02-19T19:02:49.218Z,10.60
2023-02-19T19:05:23.356Z,10.49
2023-02-19T19:07:52.860Z,10.48
2023-02-19T19:10:21.549Z,10.40
2023-02-19T19:12:50.201Z,10.28
2023-02-19T19:15:21.470Z,10.14
2023-02-19T19:17:51.503Z,10.00
2023-02-19T19:20:22.119Z,9.99
2023-02-19T19:22:51.424Z,10.01
2023-02-19T19:25:20.359Z,9.82
2023-02-19T19:27:51.252Z,9.91
2023-02-19T19:30:22.634Z,9.80
2023-02-19T19:32:54.132Z,9.66
2023-02-19T19:35:24.393Z,9.55
2023-02-19T19:37:53.388Z,9.44
2023-02-19T19:40:24.705Z,9.60
2023-02-19T19:42:56.189Z,9.28
2023-02-19T19:45:29.954Z,9.42
2023-02-19T19:48:04.701Z,9.54
2023-02-19T19:50:33.892Z,9.27
2023-02-19T19:53:03.002Z,9.31
2023-02-19T19:55:36.482Z,9.32
2023-02-19T19:58:05.811Z,9.34
2023-02-19T20:00:34.278Z,9.04
2023-02-19T20:03:05.965Z,8.81
2023-02-19T20:05:35.957Z,9.09
2023-02-19T20:08:04.613Z,8.83
2023-02-19T20:10:33.255Z,9.00
2023-02-19T20:13:03.004Z,9.01
2023-02-19T20:15:34.334Z,9.22
2023-02-19T20:18:06.678Z,9.26
2023-02-19T20:20:35.681Z,8.90
2023-02-19T20:23:04.155Z,8.92
2023-02-19T20:25:33.007Z,9.02
2023-02-19T20:28:03.235Z,9.05
2023-02-19T20:30:32.195Z,9.03
2023-02-19T20:33:01.149Z,8.92
2023-02-19T20:35:31.922Z,9.14
2023-02-19T20:38:00.676Z,8.91
2023-02-19T20:40:30.995Z,8.90
2023-02-19T20:43:01.661Z,8.98
2023-02-19T20:45:31.253Z,8.95
2023-02-19T20:48:02.348Z,8.59
2023-02-19T20:50:32.354Z,8.91
2023-02-19T20:53:00.994Z,8.93
2023-02-19T20:55:31.939Z,8.99
2023-02-19T20:58:00.562Z,8.79
2023-02-19T21:00:29.137Z,8.58
2023-02-19T21:02:57.755Z,8.70
2023-02-19T21:05:26.538Z,8.71
2023-02-19T21:07:59.038Z,8.61
2023-02-19T21:10:28.196Z,8.68
2023-02-19T21:13:00.368Z,8.72
2023-02-19T21:15:29.774Z,8.96
2023-02-19T21:17:59.393Z,8.85
2023-02-19T21:20:31.355Z,8.65
2023-02-19T21:23:05.654Z,8.68
2023-02-19T21:25:35.572Z,8.83
2023-02-19T21:28:04.421Z,8.78
2023-02-19T21:30:33.442Z,8.79
2023-02-19T21:33:03.895Z,8.83
2023-02-19T21:35:32.667Z,8.70
2023-02-19T21:38:03.816Z,8.85
2023-02-19T21:40:34.354Z,8.69
2023-02-19T21:43:03.690Z,8.90
2023-02-19T21:45:33.738Z,8.88
2023-02-19T21:48:03.069Z,8.99
2023-02-19T21:50:32.021Z,9.00
2023-02-19T21:53:01.658Z,9.11
2023-02-19T21:55:31.810Z,8.87
2023-02-19T21:58:00.158Z,8.45
2023-02-19T22:00:28.764Z,8.96
2023-02-19T22:02:57.285Z,8.90
2023-02-19T22:05:26.136Z,8.71
2023-02-19T22:08:00.477Z,9.04
2023-02-19T22:10:29.255Z,8.98
2023-02-19T22:13:00.529Z,9.04
2023-02-19T22:15:29.379Z,8.98
2023-02-19T22:17:58.333Z,8.95
2023-02-19T22:20:28.840Z,8.95
2023-02-19T22:22:57.185Z,8.96
2023-02-19T22:25:25.671Z,9.08
2023-02-19T22:27:54.235Z,9.00
2023-02-19T22:30:24.229Z,8.81
2023-02-19T22:32:52.672Z,8.93
2023-02-19T22:35:21.994Z,9.01
2023-02-19T22:37:50.528Z,9.35
2023-02-19T22:40:19.154Z,9.31
2023-02-19T22:42:48.134Z,9.30
2023-02-19T22:45:16.462Z,9.21
2023-02-19T22:47:47.093Z,9.24
2023-02-19T22:50:18.568Z,8.86
2023-02-19T22:52:47.199Z,9.18
2023-02-19T22:55:15.541Z,9.25
2023-02-19T22:57:43.939Z,9.29
2023-02-19T23:00:18.367Z,8.99
2023-02-19T23:02:48.936Z,9.46
2023-02-19T23:05:17.727Z,9.22
2023-02-19T23:07:46.661Z,9.23
2023-02-19T23:10:15.163Z,9.38
2023-02-19T23:12:43.459Z,9.49
2023-02-19T23:15:12.408Z,9.57
2023-02-19T23:17:40.593Z,9.57
2023-02-19T23:20:11.282Z,9.54
2023-02-19T23:22:40.671Z,9.58
2023-02-19T23:25:09.549Z,9.59
2023-02-19T23:27:39.361Z,9.54
2023-02-19T23:30:09.649Z,9.74
2023-02-19T23:32:38.095Z,9.87
2023-02-19T23:35:06.871Z,9.96
2023-02-19T23:37:36.708Z,10.04
2023-02-19T23:40:05.626Z,9.92
2023-02-19T23:42:34.896Z,9.83
2023-02-19T23:45:03.458Z,10.01
2023-02-19T23:47:31.858Z,9.80
2023-02-19T23:50:00.606Z,9.68
2023-02-19T23:52:29.261Z,9.90
2023-02-19T23:55:02.124Z,9.75
2023-02-19T23:57:30.611Z,9.94
2023-02-19T23:59:59.242Z,9.98
